Time;durP1;ratioP1;P1;durP2;ratioP2;P2;SDS_P1;SDS_P2;PMS_P1;PMS_P2;Temp;Humidity;BMP_temperature;BMP_pressure;BME280_temperature;BME280_humidity;BME280_pressure;Samples;Min_cycle;Max_cycle;Signal;HPM_P1;HPM_P2
2021/12/08 00:00:15;;;;;;;;;;;5.40;99.90;;;;;;5022376;28;19913;-87
2021/12/08 00:02:41;;;;;;;;;;;5.40;99.90;;;;;;5038942;28;19893;-88
2021/12/08 00:05:07;;;;;;;;;;;5.30;99.90;;;;;;5038504;28;19968;-88
2021/12/08 00:07:33;;;;;;;;;;;5.40;99.90;;;;;;5022043;28;19901;-88
2021/12/08 00:10:05;;;;;;;;;;;5.40;99.90;;;;;;5039617;28;19893;-87
2021/12/08 00:15:15;;;;;;;;;;;5.50;99.90;;;;;;5041422;28;20019;-87
2021/12/08 00:17:40;;;;;;;;;;;5.50;99.90;;;;;;5024678;28;19917;-86
2021/12/08 00:20:07;;;;;;;;;;;5.50;99.90;;;;;;5041790;28;19931;-86
2021/12/08 00:22:32;;;;;;;;;;;5.50;99.90;;;;;;5042223;28;19909;-88
2021/12/08 00:24:58;;;;;;;;;;;5.50;99.90;;;;;;5042180;28;19920;-86
2021/12/08 00:27:23;;;;;;;;;;;5.50;99.90;;;;;;5041319;28;19963;-87
2021/12/08 00:29:49;;;;;;;;;;;5.50;99.90;;;;;;5024394;28;19889;-87
2021/12/08 00:32:15;;;;;;;;;;;5.60;99.90;;;;;;5025517;28;19908;-88
2021/12/08 00:34:40;;;;;;;;;;;5.60;99.90;;;;;;5041391;28;19913;-86
2021/12/08 00:37:06;;;;;;;;;;;5.70;99.90;;;;;;5025303;28;19905;-86
2021/12/08 00:39:32;;;;;;;;;;;5.70;99.90;;;;;;5041032;28;19912;-87
2021/12/08 00:41:58;;;;;;;;;;;5.70;99.90;;;;;;5041290;28;19920;-87
2021/12/08 00:44:24;;;;;;;;;;;5.70;99.90;;;;;;5024856;28;19932;-86
2021/12/08 00:46:49;;;;;;;;;;;5.70;99.90;;;;;;5058036;28;20022;-87
2021/12/08 00:49:16;;;;;;;;;;;5.60;99.90;;;;;;5040414;28;19905;-87
2021/12/08 00:51:42;;;;;;;;;;;5.60;99.90;;;;;;5040957;28;19913;-88
2021/12/08 00:54:08;;;;;;;;;;;5.70;99.90;;;;;;5024599;28;19916;-87
2021/12/08 00:56:34;;;;;;;;;;;5.70;99.90;;;;;;5057940;28;19897;-88
2021/12/08 00:58:59;;;;;;;;;;;5.60;99.90;;;;;;5040117;28;20000;-88
2021/12/08 01:01:26;;;;;;;;;;;5.60;99.90;;;;;;5024916;28;19956;-86
2021/12/08 01:03:51;;;;;;;;;;;5.70;99.90;;;;;;5024520;28;19976;-86
2021/12/08 01:06:17;;;;;;;;;;;5.70;99.90;;;;;;5024942;28;19897;-87
2021/12/08 01:08:43;;;;;;;;;;;5.60;99.90;;;;;;5023835;28;19923;-86
2021/12/08 01:11:11;;;;;;;;;;;5.60;99.90;;;;;;5024150;28;19905;-85
2021/12/08 01:13:36;;;;;;;;;;;5.70;99.90;;;;;;5024313;28;19929;-88
2021/12/08 01:16:02;;;;;;;;;;;5.70;99.90;;;;;;5040471;28;19917;-87
2021/12/08 01:18:29;;;;;;;;;;;5.70;99.90;;;;;;5023445;28;19972;-87
2021/12/08 01:20:56;;;;;;;;;;;5.70;99.90;;;;;;5040223;28;19904;-87
2021/12/08 01:23:22;;;;;;;;;;;5.70;99.90;;;;;;5039394;28;19917;-86
2021/12/08 01:25:48;;;;;;;;;;;5.80;99.90;;;;;;5039630;28;19924;-87
2021/12/08 01:28:14;;;;;;;;;;;5.80;99.90;;;;;;5022911;28;19920;-85
2021/12/08 01:30:40;;;;;;;;;;;5.70;99.90;;;;;;5023950;28;19920;-88
2021/12/08 01:33:05;;;;;;;;;;;5.70;99.90;;;;;;5023736;28;19913;-87
2021/12/08 01:35:31;;;;;;;;;;;5.70;99.90;;;;;;5023934;28;19927;-87
2021/12/08 01:37:57;;;;;;;;;;;5.60;99.90;;;;;;5023092;28;19904;-87
2021/12/08 01:40:22;;;;;;;;;;;5.70;99.90;;;;;;5039839;28;19943;-88
2021/12/08 01:42:51;;;;;;;;;;;5.60;99.90;;;;;;5039809;28;20153;-86
2021/12/08 01:48:06;;;;;;;;;;;5.60;99.90;;;;;;5039375;28;19905;-88
2021/12/08 01:50:32;;;;;;;;;;;5.60;99.90;;;;;;5018924;28;19908;-85
2021/12/08 01:52:58;;;;;;;;;;;5.60;99.90;;;;;;5002978;28;20358;-85
2021/12/08 01:55:24;;;;;;;;;;;5.70;99.90;;;;;;5018796;28;20358;-85
2021/12/08 01:57:50;;;;;;;;;;;5.60;99.90;;;;;;5017811;28;20308;-85
2021/12/08 02:00:20;;;;;;;;;;;5.70;99.90;;;;;;5036202;28;19952;-85
2021/12/08 02:02:55;;;;;;;;;;;5.70;99.90;;;;;;5019715;28;19928;-86
2021/12/08 02:05:21;;;;;;;;;;;5.70;99.90;;;;;;5017863;28;19983;-85
2021/12/08 02:07:47;;;;;;;;;;;5.70;99.90;;;;;;5000931;28;19917;-85
2021/12/08 02:10:13;;;;;;;;;;;5.70;99.90;;;;;;5001799;28;20410;-85
2021/12/08 02:12:41;;;;;;;;;;;5.80;99.90;;;;;;5018145;28;20767;-86
2021/12/08 02:15:07;;;;;;;;;;;5.70;99.90;;;;;;5018061;28;19990;-85
2021/12/08 02:17:33;;;;;;;;;;;5.70;99.90;;;;;;5017692;28;19932;-86
2021/12/08 02:19:59;;;;;;;;;;;5.70;99.90;;;;;;5017911;28;20375;-86
2021/12/08 02:22:25;;;;;;;;;;;5.70;99.90;;;;;;5018010;28;20366;-84
2021/12/08 02:24:50;;;;;;;;;;;5.70;99.90;;;;;;5017510;28;19962;-85
2021/12/08 02:27:16;;;;;;;;;;;5.80;99.90;;;;;;5018188;28;19955;-85
2021/12/08 02:29:50;;;;;;;;;;;5.80;99.90;;;;;;5035038;28;19909;-85
2021/12/08 02:48:27;;;;;;;;;;;5.80;99.90;;;;;;5034384;28;19913;-85
2021/12/08 02:50:53;;;;;;;;;;;5.90;99.90;;;;;;5018608;28;19908;-85
2021/12/08 02:53:18;;;;;;;;;;;5.90;99.90;;;;;;5035170;28;20392;-85
2021/12/08 02:55:45;;;;;;;;;;;5.90;99.90;;;;;;5018475;28;20062;-85
2021/12/08 02:58:10;;;;;;;;;;;5.90;99.90;;;;;;5034887;28;19909;-85
2021/12/08 03:00:38;;;;;;;;;;;5.90;99.90;;;;;;5052533;28;20364;-86
2021/12/08 03:03:04;;;;;;;;;;;5.90;99.90;;;;;;5018795;28;19923;-85
2021/12/08 03:05:30;;;;;;;;;;;5.90;99.90;;;;;;5018448;28;20391;-86
2021/12/08 03:07:56;;;;;;;;;;;5.90;99.90;;;;;;5017628;28;19916;-86
2021/12/08 03:10:24;;;;;;;;;;;5.90;99.90;;;;;;5034551;28;19971;-85
2021/12/08 03:12:50;;;;;;;;;;;5.90;99.90;;;;;;5018271;28;20311;-85
2021/12/08 03:15:16;;;;;;;;;;;6.00;99.90;;;;;;5052599;28;19915;-85
2021/12/08 03:17:42;;;;;;;;;;;5.90;99.90;;;;;;5017676;28;19919;-85
2021/12/08 03:20:11;;;;;;;;;;;6.00;99.90;;;;;;5017846;28;19909;-85
2021/12/08 03:22:42;;;;;;;;;;;6.00;99.90;;;;;;5034614;28;19930;-85
2021/12/08 03:25:11;;;;;;;;;;;6.00;99.90;;;;;;5018273;28;19909;-85
2021/12/08 03:27:43;;;;;;;;;;;6.00;99.90;;;;;;5017477;28;19913;-85
2021/12/08 03:30:20;;;;;;;;;;;6.00;99.90;;;;;;5018141;28;19995;-85
2021/12/08 03:32:46;;;;;;;;;;;6.00;99.90;;;;;;5018003;28;19909;-84
2021/12/08 03:35:13;;;;;;;;;;;6.00;99.90;;;;;;5018123;28;20000;-86
2021/12/08 03:37:45;;;;;;;;;;;6.00;99.90;;;;;;5033766;28;20353;-85
2021/12/08 03:40:14;;;;;;;;;;;6.00;99.90;;;;;;5034430;28;19908;-85
2021/12/08 03:42:40;;;;;;;;;;;6.00;99.90;;;;;;5018168;28;19908;-85
2021/12/08 03:45:09;;;;;;;;;;;6.10;99.90;;;;;;5019143;28;20418;-87
2021/12/08 03:47:38;;;;;;;;;;;6.00;99.90;;;;;;5021299;28;19966;-85
2021/12/08 03:50:05;;;;;;;;;;;6.10;99.90;;;;;;5021726;28;20357;-86
2021/12/08 03:52:31;;;;;;;;;;;6.10;99.90;;;;;;5038402;28;20073;-85
2021/12/08 03:54:56;;;;;;;;;;;6.10;99.90;;;;;;5038126;28;20401;-85
2021/12/08 03:57:22;;;;;;;;;;;6.00;99.90;;;;;;5021790;28;19909;-84
2021/12/08 03:59:48;;;;;;;;;;;6.10;99.90;;;;;;5021323;28;19913;-85
2021/12/08 04:02:14;;;;;;;;;;;6.10;99.90;;;;;;5021561;28;19909;-85
2021/12/08 04:04:49;;;;;;;;;;;6.10;99.90;;;;;;5038191;28;19909;-85
2021/12/08 04:07:16;;;;;;;;;;;6.10;99.90;;;;;;5038486;28;19944;-84
2021/12/08 04:09:44;;;;;;;;;;;6.10;99.90;;;;;;5021193;28;19958;-85
2021/12/08 04:12:12;;;;;;;;;;;6.00;99.90;;;;;;5022020;28;19908;-85
2021/12/08 04:14:39;;;;;;;;;;;6.00;99.90;;;;;;5037811;28;19932;-85
2021/12/08 04:17:08;;;;;;;;;;;6.00;99.90;;;;;;5021337;28;19915;-85
2021/12/08 04:19:34;;;;;;;;;;;6.10;99.90;;;;;;5020699;28;20339;-85
2021/12/08 04:22:03;;;;;;;;;;;6.00;99.90;;;;;;5038259;28;19948;-84
2021/12/08 04:24:31;;;;;;;;;;;6.10;99.90;;;;;;5021278;28;19912;-86
2021/12/08 04:27:02;;;;;;;;;;;6.10;99.90;;;;;;5021685;28;19912;-86
2021/12/08 04:29:30;;;;;;;;;;;6.00;99.90;;;;;;5038116;28;19963;-84
2021/12/08 04:31:56;;;;;;;;;;;6.10;99.90;;;;;;5024282;28;20011;-85
2021/12/08 04:34:27;;;;;;;;;;;6.10;99.90;;;;;;5039582;28;19919;-85
2021/12/08 04:36:54;;;;;;;;;;;6.00;99.90;;;;;;5021716;28;20487;-86
2021/12/08 04:39:38;;;;;;;;;;;6.00;99.90;;;;;;5020942;28;19913;-86
2021/12/08 04:42:08;;;;;;;;;;;6.00;99.90;;;;;;5038793;28;20328;-85
2021/12/08 04:44:42;;;;;;;;;;;6.00;99.90;;;;;;5038516;28;19947;-85
2021/12/08 05:07:16;;;;;;;;;;;6.10;99.90;;;;;;5037407;28;19913;-86
2021/12/08 05:09:06;;;;;;;;;;;6.10;99.90;;;;;;5015396;28;19913;-86
2021/12/08 05:11:34;;;;;;;;;;;6.10;99.90;;;;;;5020951;28;19916;-85
2021/12/08 05:14:05;;;;;;;;;;;6.10;99.90;;;;;;5021077;28;20007;-86
2021/12/08 05:16:32;;;;;;;;;;;6.20;99.90;;;;;;5037667;28;19909;-86
2021/12/08 05:18:59;;;;;;;;;;;6.10;99.90;;;;;;5037215;28;19931;-85
2021/12/08 05:21:38;;;;;;;;;;;6.20;99.90;;;;;;5037238;28;19909;-85
2021/12/08 05:24:07;;;;;;;;;;;6.10;99.90;;;;;;5021109;28;19909;-86
2021/12/08 05:26:35;;;;;;;;;;;6.20;99.90;;;;;;5021338;28;19962;-86
2021/12/08 05:29:06;;;;;;;;;;;6.10;99.90;;;;;;5036733;28;19913;-84
2021/12/08 05:31:32;;;;;;;;;;;6.20;99.90;;;;;;5037257;28;19908;-86
2021/12/08 05:33:58;;;;;;;;;;;6.20;99.90;;;;;;5021419;28;19952;-85
2021/12/08 05:36:24;;;;;;;;;;;6.20;99.90;;;;;;5037603;28;19923;-85
2021/12/08 05:38:59;;;;;;;;;;;6.10;99.90;;;;;;5036539;28;19931;-85
2021/12/08 05:41:40;;;;;;;;;;;6.20;99.90;;;;;;5020672;28;19951;-86
2021/12/08 05:44:06;;;;;;;;;;;6.10;99.90;;;;;;5021323;28;19908;-84
2021/12/08 05:46:33;;;;;;;;;;;6.10;99.90;;;;;;5021211;28;20372;-84
2021/12/08 05:49:01;;;;;;;;;;;6.10;99.90;;;;;;5019924;28;19912;-84
2021/12/08 05:51:28;;;;;;;;;;;6.10;99.90;;;;;;5020019;28;19996;-84
2021/12/08 05:53:56;;;;;;;;;;;6.00;99.90;;;;;;5038803;28;19909;-85
2021/12/08 05:56:22;;;;;;;;;;;6.00;99.90;;;;;;5039875;28;20353;-84
2021/12/08 05:58:51;;;;;;;;;;;6.00;99.90;;;;;;5023049;28;19908;-85
2021/12/08 06:01:19;;;;;;;;;;;6.00;99.90;;;;;;5023025;28;19923;-85
2021/12/08 06:03:49;;;;;;;;;;;6.00;99.90;;;;;;5022689;28;19908;-86
2021/12/08 06:06:15;;;;;;;;;;;6.00;99.90;;;;;;5039653;28;19932;-85
2021/12/08 06:08:42;;;;;;;;;;;6.00;99.90;;;;;;5021850;28;19913;-85
2021/12/08 06:11:08;;;;;;;;;;;6.00;99.90;;;;;;5022773;28;19916;-85
2021/12/08 06:13:34;;;;;;;;;;;6.00;99.90;;;;;;5038801;28;19958;-84
2021/12/08 06:16:00;;;;;;;;;;;6.00;99.90;;;;;;5022845;28;20399;-85
2021/12/08 06:18:27;;;;;;;;;;;6.00;99.90;;;;;;5041718;28;19916;-85
2021/12/08 06:20:55;;;;;;;;;;;6.00;99.90;;;;;;5025625;28;19913;-85
2021/12/08 06:23:20;;;;;;;;;;;6.00;99.90;;;;;;5026042;28;20341;-84
2021/12/08 06:25:46;;;;;;;;;;;6.00;99.90;;;;;;5026149;28;19904;-85
2021/12/08 06:28:13;;;;;;;;;;;6.00;99.90;;;;;;5041761;28;19958;-84
2021/12/08 06:30:39;;;;;;;;;;;6.00;99.90;;;;;;5026397;28;19915;-85
2021/12/08 06:33:05;;;;;;;;;;;6.00;99.90;;;;;;5042895;28;19916;-85
2021/12/08 06:35:43;;;;;;;;;;;6.00;99.90;;;;;;5026454;28;19912;-84
2021/12/08 06:38:09;;;;;;;;;;;5.90;99.90;;;;;;5025774;28;20419;-84
2021/12/08 06:40:38;;;;;;;;;;;6.00;99.90;;;;;;5043313;28;19904;-85
2021/12/08 06:43:05;;;;;;;;;;;6.00;99.90;;;;;;5042288;28;19915;-85
2021/12/08 06:45:32;;;;;;;;;;;6.00;99.90;;;;;;5026017;28;19904;-85
2021/12/08 06:48:00;;;;;;;;;;;6.00;99.90;;;;;;5025633;28;19917;-85
2021/12/08 06:50:28;;;;;;;;;;;6.00;99.90;;;;;;5042415;28;20361;-86
2021/12/08 06:52:54;;;;;;;;;;;6.00;99.90;;;;;;5026400;28;20258;-86
2021/12/08 06:55:22;;;;;;;;;;;6.00;99.90;;;;;;5043606;28;19928;-85
2021/12/08 06:57:53;;;;;;;;;;;6.00;99.90;;;;;;5025696;28;19916;-85
2021/12/08 07:00:23;;;;;;;;;;;6.00;99.90;;;;;;5042940;28;19916;-85
2021/12/08 07:03:32;;;;;;;;;;;6.10;99.90;;;;;;5060351;28;19915;-85
2021/12/08 07:08:24;;;;;;;;;;;6.00;99.90;;;;;;5042104;28;19996;-84
2021/12/08 07:10:52;;;;;;;;;;;6.10;99.90;;;;;;5060893;28;19908;-85
2021/12/08 07:13:21;;;;;;;;;;;6.10;99.90;;;;;;5025964;28;19919;-87
2021/12/08 07:15:55;;;;;;;;;;;6.00;99.90;;;;;;5026745;28;19940;-85
2021/12/08 07:18:27;;;;;;;;;;;6.00;99.90;;;;;;5042003;28;19912;-85
2021/12/08 07:20:55;;;;;;;;;;;6.10;99.90;;;;;;5028237;28;19909;-85
2021/12/08 07:23:36;;;;;;;;;;;6.00;99.90;;;;;;5046291;28;19927;-85
2021/12/08 07:26:04;;;;;;;;;;;6.10;99.90;;;;;;5030627;28;19944;-85
2021/12/08 07:28:30;;;;;;;;;;;6.10;99.90;;;;;;5029732;28;19935;-84
2021/12/08 07:30:58;;;;;;;;;;;6.10;99.90;;;;;;5029308;28;19908;-84
2021/12/08 07:33:26;;;;;;;;;;;6.10;99.90;;;;;;5029716;28;20268;-84
2021/12/08 07:35:53;;;;;;;;;;;6.10;99.90;;;;;;5064249;28;19913;-85
2021/12/08 07:38:21;;;;;;;;;;;6.10;99.90;;;;;;5028916;28;19959;-85
2021/12/08 07:40:51;;;;;;;;;;;6.10;99.90;;;;;;5046186;28;19916;-84
2021/12/08 07:43:20;;;;;;;;;;;6.10;99.90;;;;;;5046344;28;20228;-83
2021/12/08 07:46:02;;;;;;;;;;;6.10;99.90;;;;;;5046291;28;19908;-85
2021/12/08 07:48:34;;;;;;;;;;;6.10;99.90;;;;;;5028389;28;19916;-85
2021/12/08 07:51:11;;;;;;;;;;;6.20;99.90;;;;;;5045953;28;19909;-85
2021/12/08 07:53:37;;;;;;;;;;;6.10;99.90;;;;;;5046126;28;19908;-83
2021/12/08 07:56:05;;;;;;;;;;;6.10;99.90;;;;;;5045973;28;19951;-84
2021/12/08 07:58:32;;;;;;;;;;;6.10;99.90;;;;;;5045777;28;19908;-84
2021/12/08 08:01:04;;;;;;;;;;;6.10;99.90;;;;;;5028815;28;20451;-84
2021/12/08 08:03:32;;;;;;;;;;;6.10;99.90;;;;;;5045802;28;19909;-85
2021/12/08 08:05:59;;;;;;;;;;;6.10;99.90;;;;;;5045457;28;19935;-83
2021/12/08 08:08:29;;;;;;;;;;;6.10;99.90;;;;;;5029262;28;19966;-85
2021/12/08 08:10:59;;;;;;;;;;;6.10;99.90;;;;;;5029246;28;19992;-84
2021/12/08 08:13:25;;;;;;;;;;;6.10;99.90;;;;;;5029540;28;19955;-84
2021/12/08 08:15:53;;;;;;;;;;;6.10;99.90;;;;;;5029212;28;19996;-85
2021/12/08 08:18:24;;;;;;;;;;;6.10;99.90;;;;;;5029505;28;19916;-85
2021/12/08 08:20:51;;;;;;;;;;;6.20;99.90;;;;;;5028666;28;19909;-84
2021/12/08 08:23:22;;;;;;;;;;;6.10;99.90;;;;;;5028965;28;19909;-85
2021/12/08 08:25:48;;;;;;;;;;;6.10;99.90;;;;;;5028907;28;19909;-83
2021/12/08 08:28:16;;;;;;;;;;;6.20;99.90;;;;;;5044693;28;19959;-84
2021/12/08 08:30:54;;;;;;;;;;;6.10;99.90;;;;;;5045383;28;19909;-83
2021/12/08 08:33:20;;;;;;;;;;;6.20;99.90;;;;;;5056831;22;21401;-84
2021/12/08 08:35:49;;;;;;;;;;;6.20;99.90;;;;;;5053954;28;19912;-84
2021/12/08 08:38:19;;;;;;;;;;;6.20;99.90;;;;;;5036745;28;19916;-84
2021/12/08 08:40:47;;;;;;;;;;;6.20;99.90;;;;;;5055152;28;19913;-84
2021/12/08 08:43:13;;;;;;;;;;;6.20;99.90;;;;;;5037228;28;19916;-84
2021/12/08 08:45:38;;;;;;;;;;;6.30;99.90;;;;;;5055122;28;19905;-85
2021/12/08 08:48:07;;;;;;;;;;;6.20;99.90;;;;;;5037919;28;19917;-85
2021/12/08 08:50:39;;;;;;;;;;;6.30;99.90;;;;;;5038223;28;19915;-85
2021/12/08 08:53:05;;;;;;;;;;;6.30;99.90;;;;;;5055890;28;19923;-84
2021/12/08 08:55:33;;;;;;;;;;;6.30;99.90;;;;;;5020986;28;19909;-84
2021/12/08 08:58:02;;;;;;;;;;;6.30;99.90;;;;;;5036701;28;19923;-85
2021/12/08 09:00:33;;;;;;;;;;;6.30;99.90;;;;;;5036735;28;19916;-84
2021/12/08 09:03:04;;;;;;;;;;;6.30;99.90;;;;;;5020555;28;19916;-84
2021/12/08 09:05:36;;;;;;;;;;;6.30;99.90;;;;;;5020488;28;20276;-84
2021/12/08 09:08:03;;;;;;;;;;;6.40;99.90;;;;;;5036492;28;19964;-84
2021/12/08 09:10:34;;;;;;;;;;;6.40;99.90;;;;;;5019990;28;20360;-84
2021/12/08 09:13:02;;;;;;;;;;;6.30;99.90;;;;;;5036738;28;20457;-84
2021/12/08 09:15:33;;;;;;;;;;;6.40;99.90;;;;;;5020062;28;19914;-84
2021/12/08 09:18:11;;;;;;;;;;;6.40;99.90;;;;;;5035967;28;20003;-84
2021/12/08 09:20:36;;;;;;;;;;;6.40;99.90;;;;;;5036493;28;19978;-85
2021/12/08 09:23:06;;;;;;;;;;;6.40;99.90;;;;;;5036192;28;19908;-84
2021/12/08 09:25:35;;;;;;;;;;;6.40;99.90;;;;;;5036732;28;19915;-85
2021/12/08 09:28:07;;;;;;;;;;;6.50;99.90;;;;;;5019868;28;20003;-85
2021/12/08 09:30:35;;;;;;;;;;;6.50;99.90;;;;;;5036348;28;19909;-84
2021/12/08 09:33:04;;;;;;;;;;;6.50;99.90;;;;;;5036158;28;19915;-84
2021/12/08 09:35:33;;;;;;;;;;;6.60;99.90;;;;;;5036461;28;19913;-84
2021/12/08 09:38:05;;;;;;;;;;;6.60;99.90;;;;;;5019286;28;19909;-84
2021/12/08 09:40:44;;;;;;;;;;;6.60;99.90;;;;;;5036094;28;19908;-84
2021/12/08 09:43:13;;;;;;;;;;;6.60;99.90;;;;;;5052009;28;19955;-84
2021/12/08 09:45:41;;;;;;;;;;;6.60;99.90;;;;;;5019577;28;19912;-85
2021/12/08 09:48:08;;;;;;;;;;;6.60;99.90;;;;;;5035485;28;19912;-84
2021/12/08 09:50:35;;;;;;;;;;;6.60;99.90;;;;;;5019570;28;19916;-84
2021/12/08 09:53:01;;;;;;;;;;;6.60;99.90;;;;;;5035714;28;19909;-84
2021/12/08 09:55:27;;;;;;;;;;;6.60;99.90;;;;;;5035925;28;19909;-85
2021/12/08 09:57:54;;;;;;;;;;;6.70;99.90;;;;;;5035498;28;19909;-84
2021/12/08 10:00:25;;;;;;;;;;;6.60;99.90;;;;;;5035438;28;19908;-85
2021/12/08 10:02:57;;;;;;;;;;;6.70;99.90;;;;;;5035916;28;19908;-84
2021/12/08 10:05:25;;;;;;;;;;;6.70;99.90;;;;;;5036461;28;19916;-85
2021/12/08 10:07:51;;;;;;;;;;;6.70;99.90;;;;;;5035664;28;19912;-85
2021/12/08 10:10:16;;;;;;;;;;;6.70;99.90;;;;;;5035494;28;19916;-84
2021/12/08 10:12:42;;;;;;;;;;;6.80;99.90;;;;;;5019466;28;19908;-85
2021/12/08 10:15:09;;;;;;;;;;;6.90;99.90;;;;;;5019236;28;19955;-85
2021/12/08 10:17:35;;;;;;;;;;;6.90;99.90;;;;;;5035931;28;19916;-85
2021/12/08 10:20:10;;;;;;;;;;;6.80;99.90;;;;;;5019202;28;19908;-84
2021/12/08 10:22:38;;;;;;;;;;;6.80;99.90;;;;;;5036336;28;19916;-84
2021/12/08 10:25:07;;;;;;;;;;;6.90;99.90;;;;;;5035832;28;19916;-84
2021/12/08 10:27:52;;;;;;;;;;;6.90;99.90;;;;;;5052884;28;19915;-85
2021/12/08 10:30:23;;;;;;;;;;;6.90;99.90;;;;;;5035448;28;19909;-84
2021/12/08 10:32:49;;;;;;;;;;;7.00;99.90;;;;;;5035523;28;19909;-84
2021/12/08 10:35:39;;;;;;;;;;;7.00;99.90;;;;;;5018933;28;19913;-85
2021/12/08 10:38:05;;;;;;;;;;;7.00;99.90;;;;;;5052588;28;19947;-85
2021/12/08 10:40:30;;;;;;;;;;;6.90;99.90;;;;;;5018738;28;19904;-84
2021/12/08 10:42:56;;;;;;;;;;;7.00;99.90;;;;;;5018572;28;19913;-84
2021/12/08 10:45:26;;;;;;;;;;;7.00;99.90;;;;;;5051648;28;20273;-84
2021/12/08 10:47:56;;;;;;;;;;;7.00;99.90;;;;;;5017987;28;20007;-84
2021/12/08 10:56:03;;;;;;;;;;;7.10;99.90;;;;;;5033874;28;19916;-84
2021/12/08 10:58:30;;;;;;;;;;;7.00;99.90;;;;;;5034099;28;19909;-84
2021/12/08 11:00:57;;;;;;;;;;;7.10;99.90;;;;;;5034499;28;19978;-84
2021/12/08 11:03:23;;;;;;;;;;;7.10;99.90;;;;;;5018158;28;19909;-84
2021/12/08 11:05:54;;;;;;;;;;;7.10;99.90;;;;;;5034790;28;19932;-84
2021/12/08 11:08:30;;;;;;;;;;;7.10;99.90;;;;;;5034088;28;19919;-84
2021/12/08 11:10:55;;;;;;;;;;;7.10;99.90;;;;;;5034528;28;19966;-84
2021/12/08 11:13:23;;;;;;;;;;;7.20;99.90;;;;;;5034504;28;20034;-84
2021/12/08 11:15:56;;;;;;;;;;;7.20;99.90;;;;;;5034739;28;19966;-84
2021/12/08 11:18:24;;;;;;;;;;;7.20;99.90;;;;;;5034182;28;19919;-84
2021/12/08 11:21:14;;;;;;;;;;;7.20;99.90;;;;;;5034474;28;19948;-85
2021/12/08 11:23:45;;;;;;;;;;;7.20;99.90;;;;;;5034434;28;20353;-84
2021/12/08 11:26:12;;;;;;;;;;;7.20;99.90;;;;;;5051273;28;19909;-84
2021/12/08 11:28:38;;;;;;;;;;;7.20;99.90;;;;;;5033923;28;20015;-84
2021/12/08 11:31:06;;;;;;;;;;;7.10;99.90;;;;;;5017942;28;19956;-84
2021/12/08 11:33:32;;;;;;;;;;;7.20;99.90;;;;;;5017858;28;19916;-84
2021/12/08 11:36:06;;;;;;;;;;;7.20;99.90;;;;;;5034381;28;19909;-84
2021/12/08 11:38:32;;;;;;;;;;;7.20;99.90;;;;;;5051635;28;20335;-84
2021/12/08 11:40:57;;;;;;;;;;;7.20;99.90;;;;;;5034273;28;19908;-84
2021/12/08 11:43:30;;;;;;;;;;;7.20;99.90;;;;;;5051798;28;20305;-85
2021/12/08 11:46:15;;;;;;;;;;;7.20;99.90;;;;;;5034287;28;19919;-84
2021/12/08 11:49:08;;;;;;;;;;;7.20;99.90;;;;;;5051713;28;20357;-84
2021/12/08 11:51:43;;;;;;;;;;;7.20;99.90;;;;;;5034317;28;19909;-84
2021/12/08 11:54:31;;;;;;;;;;;7.20;99.90;;;;;;5064408;28;19947;-86
2021/12/08 11:57:22;;;;;;;;;;;7.30;99.90;;;;;;5074164;28;19912;-86
2021/12/08 11:59:48;;;;;;;;;;;7.30;99.90;;;;;;5057094;28;19919;-86
2021/12/08 12:02:15;;;;;;;;;;;7.30;99.90;;;;;;5074115;28;19948;-86
2021/12/08 12:04:44;;;;;;;;;;;7.30;99.90;;;;;;5057697;28;19941;-87
2021/12/08 12:07:10;;;;;;;;;;;7.30;99.90;;;;;;5043127;28;19916;-86
2021/12/08 12:09:36;;;;;;;;;;;7.20;99.90;;;;;;5060816;28;19917;-86
2021/12/08 12:12:03;;;;;;;;;;;7.20;99.90;;;;;;5061192;28;19912;-86
2021/12/08 12:14:28;;;;;;;;;;;7.20;99.90;;;;;;5060980;28;19909;-87
2021/12/08 12:16:54;;;;;;;;;;;7.20;99.90;;;;;;5060982;28;19956;-87
2021/12/08 12:19:21;;;;;;;;;;;7.20;99.90;;;;;;5060482;28;19917;-85
2021/12/08 12:21:56;;;;;;;;;;;7.20;99.90;;;;;;5044404;28;19909;-86
2021/12/08 12:24:28;;;;;;;;;;;7.20;99.90;;;;;;5044238;28;19909;-87
2021/12/08 12:27:13;;;;;;;;;;;7.20;99.90;;;;;;5043855;28;19909;-86
2021/12/08 12:29:42;;;;;;;;;;;7.20;99.90;;;;;;5043029;28;19983;-85
2021/12/08 12:32:10;;;;;;;;;;;7.20;99.90;;;;;;5061148;28;19919;-86
2021/12/08 12:34:37;;;;;;;;;;;7.30;99.90;;;;;;5044079;28;19915;-86
2021/12/08 12:37:05;;;;;;;;;;;7.20;99.90;;;;;;5060503;28;19897;-86
2021/12/08 12:39:31;;;;;;;;;;;7.30;99.90;;;;;;5043394;28;19909;-85
2021/12/08 12:41:58;;;;;;;;;;;7.30;99.90;;;;;;5044144;28;19915;-85
2021/12/08 12:44:25;;;;;;;;;;;7.40;99.90;;;;;;5059991;28;19908;-86
2021/12/08 12:47:03;;;;;;;;;;;7.40;99.90;;;;;;5060296;28;19959;-86
2021/12/08 12:49:29;;;;;;;;;;;7.40;99.90;;;;;;5043040;28;19913;-87
2021/12/08 12:51:58;;;;;;;;;;;7.40;99.90;;;;;;5060101;28;19909;-87
2021/12/08 12:54:25;;;;;;;;;;;7.40;99.90;;;;;;5059884;28;19896;-87
2021/12/08 12:56:51;;;;;;;;;;;7.30;99.90;;;;;;5059836;28;19909;-87
2021/12/08 12:59:21;;;;;;;;;;;7.40;99.90;;;;;;5059410;28;19928;-88
2021/12/08 13:02:03;;;;;;;;;;;7.40;99.90;;;;;;5059753;28;19984;-86
2021/12/08 13:04:30;;;;;;;;;;;7.40;99.90;;;;;;5058983;28;19908;-86
2021/12/08 13:07:01;;;;;;;;;;;7.30;99.90;;;;;;5076661;28;19919;-87
2021/12/08 13:09:35;;;;;;;;;;;7.30;99.90;;;;;;5042133;28;19916;-87
2021/12/08 13:12:07;;;;;;;;;;;7.30;99.90;;;;;;5043443;28;19916;-87
2021/12/08 13:14:33;;;;;;;;;;;7.40;99.90;;;;;;5059493;28;19924;-86
2021/12/08 13:17:09;;;;;;;;;;;7.40;99.90;;;;;;5074530;28;19920;-86
2021/12/08 13:19:40;;;;;;;;;;;7.40;99.90;;;;;;5057644;28;19909;-87
2021/12/08 13:22:05;;;;;;;;;;;7.40;99.90;;;;;;5058642;28;19916;-87
2021/12/08 13:24:35;;;;;;;;;;;7.50;99.90;;;;;;5042387;28;19909;-86
2021/12/08 13:27:04;;;;;;;;;;;7.40;99.90;;;;;;5041540;28;19912;-86
2021/12/08 13:29:31;;;;;;;;;;;7.50;99.90;;;;;;5041648;28;19916;-86
2021/12/08 13:32:10;;;;;;;;;;;7.50;99.90;;;;;;5041678;28;19907;-86
2021/12/08 13:34:36;;;;;;;;;;;7.60;99.90;;;;;;5074991;28;19916;-85
2021/12/08 13:37:19;;;;;;;;;;;7.50;99.90;;;;;;5058191;28;19893;-86
2021/12/08 13:39:46;;;;;;;;;;;7.50;99.90;;;;;;5057582;28;19931;-87
2021/12/08 13:42:14;;;;;;;;;;;7.50;99.90;;;;;;5042393;28;19909;-87
2021/12/08 13:44:41;;;;;;;;;;;7.50;99.90;;;;;;5059574;28;19915;-85
2021/12/08 13:47:25;;;;;;;;;;;7.40;99.90;;;;;;5059085;28;19912;-86
2021/12/08 13:49:52;;;;;;;;;;;7.40;99.90;;;;;;5059153;28;19916;-85
2021/12/08 13:52:20;;;;;;;;;;;7.40;99.90;;;;;;5077040;28;19921;-85
2021/12/08 13:54:47;;;;;;;;;;;7.40;99.90;;;;;;5059885;28;19917;-87
2021/12/08 13:57:30;;;;;;;;;;;7.40;99.90;;;;;;5060212;28;19928;-85
2021/12/08 14:00:01;;;;;;;;;;;7.40;99.90;;;;;;5043039;28;19939;-84
2021/12/08 14:02:28;;;;;;;;;;;7.50;99.90;;;;;;5059465;28;19976;-86
2021/12/08 14:05:00;;;;;;;;;;;7.40;99.90;;;;;;5042960;28;19916;-86
2021/12/08 14:07:26;;;;;;;;;;;7.40;99.90;;;;;;5042163;28;19912;-85
2021/12/08 14:09:54;;;;;;;;;;;7.40;99.90;;;;;;5058758;28;19935;-86
2021/12/08 14:12:20;;;;;;;;;;;7.40;99.90;;;;;;5041955;28;19909;-85
2021/12/08 14:14:56;;;;;;;;;;;7.40;99.90;;;;;;5041902;28;19923;-86
2021/12/08 14:17:26;;;;;;;;;;;7.40;99.90;;;;;;5058570;28;19936;-86
2021/12/08 14:19:52;;;;;;;;;;;7.40;99.90;;;;;;5058545;28;19930;-85
2021/12/08 14:22:17;;;;;;;;;;;7.40;99.90;;;;;;5041466;28;19892;-85
2021/12/08 14:24:43;;;;;;;;;;;7.40;99.90;;;;;;5058327;28;19910;-85
2021/12/08 14:27:09;;;;;;;;;;;7.40;99.90;;;;;;5041399;28;19934;-86
2021/12/08 14:29:35;;;;;;;;;;;7.40;99.90;;;;;;5056812;28;20419;-86
2021/12/08 14:32:01;;;;;;;;;;;7.40;99.90;;;;;;5041265;28;19916;-87
2021/12/08 14:34:28;;;;;;;;;;;7.40;99.90;;;;;;5065435;23;19928;-84
2021/12/08 14:36:53;;;;;;;;;;;7.40;99.90;;;;;;5062481;28;19912;-85
2021/12/08 14:39:30;;;;;;;;;;;7.40;99.90;;;;;;5062378;28;19909;-86
2021/12/08 14:41:57;;;;;;;;;;;7.40;99.90;;;;;;5080470;28;19913;-85
2021/12/08 14:44:35;;;;;;;;;;;7.40;99.90;;;;;;5052903;28;19909;-86
2021/12/08 14:47:05;;;;;;;;;;;7.40;99.90;;;;;;5038338;28;19908;-83
2021/12/08 14:49:31;;;;;;;;;;;7.30;99.90;;;;;;5021128;28;19913;-87
2021/12/08 14:52:03;;;;;;;;;;;7.40;99.90;;;;;;5022384;28;20330;-85
2021/12/08 14:54:30;;;;;;;;;;;7.30;99.90;;;;;;5024723;28;20257;-83
2021/12/08 14:57:15;;;;;;;;;;;7.30;99.90;;;;;;5022357;28;19909;-84
2021/12/08 14:59:43;;;;;;;;;;;7.30;99.90;;;;;;5038152;28;19912;-83
2021/12/08 15:02:09;;;;;;;;;;;7.30;99.90;;;;;;5038667;28;19936;-83
2021/12/08 15:04:36;;;;;;;;;;;7.30;99.90;;;;;;5037961;28;20361;-83
2021/12/08 15:07:04;;;;;;;;;;;7.30;99.90;;;;;;5037753;28;20387;-83
2021/12/08 15:09:31;;;;;;;;;;;7.20;99.90;;;;;;5020979;28;20000;-84
2021/12/08 15:11:57;;;;;;;;;;;7.30;99.90;;;;;;5055622;28;19931;-84
2021/12/08 15:14:23;;;;;;;;;;;7.20;99.90;;;;;;5022304;28;19904;-83
2021/12/08 15:16:50;;;;;;;;;;;7.30;99.90;;;;;;5054896;28;19909;-83
2021/12/08 15:19:16;;;;;;;;;;;7.20;99.90;;;;;;5037069;28;20288;-84
2021/12/08 15:21:46;;;;;;;;;;;7.20;99.90;;;;;;5055684;28;19924;-83
2021/12/08 15:24:13;;;;;;;;;;;7.20;99.90;;;;;;5021492;28;19915;-83
2021/12/08 15:26:39;;;;;;;;;;;7.20;99.90;;;;;;5038090;28;20289;-83
2021/12/08 15:29:16;;;;;;;;;;;7.20;99.90;;;;;;5036547;28;20352;-84